sensor_id;sensor_type;location;lat;lon;timestamp;temperature;humidity
15947;DHT22;8072;52.554;7.966;2023-12-20T00:01:54;6.40;99.90
15947;DHT22;8072;52.554;7.966;2023-12-20T00:04:20;6.30;99.90
15947;DHT22;8072;52.554;7.966;2023-12-20T00:06:46;6.30;99.90
15947;DHT22;8072;52.554;7.966;2023-12-20T00:09:13;6.30;99.90
15947;DHT22;8072;52.554;7.966;2023-12-20T00:11:38;6.20;99.90
15947;DHT22;8072;52.554;7.966;2023-12-20T00:14:04;6.20;99.90
15947;DHT22;8072;52.554;7.966;2023-12-20T00:16:30;6.20;99.90
15947;DHT22;8072;52.554;7.966;2023-12-20T00:18:57;6.10;99.90
15947;DHT22;8072;52.554;7.966;2023-12-20T00:21:22;6.10;99.90
15947;DHT22;8072;52.554;7.966;2023-12-20T00:23:49;6.10;99.90
15947;DHT22;8072;52.554;7.966;2023-12-20T00:26:15;6.10;99.90
15947;DHT22;8072;52.554;7.966;2023-12-20T00:28:41;6.20;99.90
15947;DHT22;8072;52.554;7.966;2023-12-20T00:31:08;6.20;99.90
15947;DHT22;8072;52.554;7.966;2023-12-20T00:33:34;6.10;99.90
15947;DHT22;8072;52.554;7.966;2023-12-20T00:35:59;6.10;99.90
15947;DHT22;8072;52.554;7.966;2023-12-20T00:38:25;6.10;99.90
15947;DHT22;8072;52.554;7.966;2023-12-20T00:40:51;6.10;99.90
15947;DHT22;8072;52.554;7.966;2023-12-20T00:43:17;6.00;99.90
15947;DHT22;8072;52.554;7.966;2023-12-20T00:45:42;6.00;99.90
15947;DHT22;8072;52.554;7.966;2023-12-20T00:48:08;6.00;99.90
15947;DHT22;8072;52.554;7.966;2023-12-20T00:50:34;6.00;99.90
15947;DHT22;8072;52.554;7.966;2023-12-20T00:53:01;6.00;99.90
15947;DHT22;8072;52.554;7.966;2023-12-20T00:55:27;5.90;99.90
15947;DHT22;8072;52.554;7.966;2023-12-20T00:57:53;5.90;99.90
15947;DHT22;8072;52.554;7.966;2023-12-20T01:00:19;6.00;99.90
15947;DHT22;8072;52.554;7.966;2023-12-20T01:02:45;6.00;99.90
15947;DHT22;8072;52.554;7.966;2023-12-20T01:05:14;5.90;99.90
15947;DHT22;8072;52.554;7.966;2023-12-20T01:07:40;6.00;99.90
15947;DHT22;8072;52.554;7.966;2023-12-20T01:10:07;6.00;99.90
15947;DHT22;8072;52.554;7.966;2023-12-20T01:12:33;5.90;99.90
15947;DHT22;8072;52.554;7.966;2023-12-20T01:14:59;5.90;99.90
15947;DHT22;8072;52.554;7.966;2023-12-20T01:17:25;5.90;99.90
15947;DHT22;8072;52.554;7.966;2023-12-20T01:19:51;5.90;99.90
15947;DHT22;8072;52.554;7.966;2023-12-20T01:22:16;6.00;99.90
15947;DHT22;8072;52.554;7.966;2023-12-20T01:24:42;5.90;99.90
15947;DHT22;8072;52.554;7.966;2023-12-20T01:27:08;5.90;99.90
15947;DHT22;8072;52.554;7.966;2023-12-20T01:29:34;5.90;99.90
15947;DHT22;8072;52.554;7.966;2023-12-20T01:31:59;5.90;99.90
15947;DHT22;8072;52.554;7.966;2023-12-20T01:34:25;5.90;99.90
15947;DHT22;8072;52.554;7.966;2023-12-20T01:36:51;5.90;99.90
15947;DHT22;8072;52.554;7.966;2023-12-20T01:39:17;5.80;99.90
15947;DHT22;8072;52.554;7.966;2023-12-20T01:41:44;5.80;99.90
15947;DHT22;8072;52.554;7.966;2023-12-20T01:44:11;5.80;99.90
15947;DHT22;8072;52.554;7.966;2023-12-20T01:46:36;5.80;99.90
15947;DHT22;8072;52.554;7.966;2023-12-20T01:49:02;5.70;99.90
15947;DHT22;8072;52.554;7.966;2023-12-20T01:51:28;5.80;99.90
15947;DHT22;8072;52.554;7.966;2023-12-20T01:53:57;5.70;99.90
15947;DHT22;8072;52.554;7.966;2023-12-20T01:56:23;5.60;99.90
15947;DHT22;8072;52.554;7.966;2023-12-20T01:58:49;5.70;99.90
15947;DHT22;8072;52.554;7.966;2023-12-20T02:01:15;5.60;99.90
15947;DHT22;8072;52.554;7.966;2023-12-20T02:03:42;5.60;99.90
15947;DHT22;8072;52.554;7.966;2023-12-20T02:06:08;5.60;99.90
15947;DHT22;8072;52.554;7.966;2023-12-20T02:08:35;5.60;99.90
15947;DHT22;8072;52.554;7.966;2023-12-20T02:11:01;5.60;99.90
15947;DHT22;8072;52.554;7.966;2023-12-20T02:13:27;5.60;99.90
15947;DHT22;8072;52.554;7.966;2023-12-20T02:15:54;5.60;99.90
15947;DHT22;8072;52.554;7.966;2023-12-20T02:18:21;5.60;99.90
15947;DHT22;8072;52.554;7.966;2023-12-20T02:20:46;5.70;99.90
15947;DHT22;8072;52.554;7.966;2023-12-20T02:23:12;5.60;99.90
15947;DHT22;8072;52.554;7.966;2023-12-20T02:25:38;5.70;99.90
15947;DHT22;8072;52.554;7.966;2023-12-20T02:28:04;5.60;99.90
15947;DHT22;8072;52.554;7.966;2023-12-20T02:30:31;5.70;99.90
15947;DHT22;8072;52.554;7.966;2023-12-20T02:32:56;5.70;99.90
15947;DHT22;8072;52.554;7.966;2023-12-20T02:35:23;5.70;99.90
15947;DHT22;8072;52.554;7.966;2023-12-20T02:37:48;5.60;99.90
15947;DHT22;8072;52.554;7.966;2023-12-20T02:40:14;5.70;99.90
15947;DHT22;8072;52.554;7.966;2023-12-20T02:42:40;5.70;99.90
15947;DHT22;8072;52.554;7.966;2023-12-20T02:45:06;5.70;99.90
15947;DHT22;8072;52.554;7.966;2023-12-20T02:47:32;5.70;99.90
15947;DHT22;8072;52.554;7.966;2023-12-20T02:49:57;5.70;99.90
15947;DHT22;8072;52.554;7.966;2023-12-20T02:52:24;5.70;99.90
15947;DHT22;8072;52.554;7.966;2023-12-20T02:54:50;5.70;99.90
15947;DHT22;8072;52.554;7.966;2023-12-20T02:57:16;5.70;99.90
15947;DHT22;8072;52.554;7.966;2023-12-20T02:59:41;5.70;99.90
15947;DHT22;8072;52.554;7.966;2023-12-20T03:02:07;5.70;99.90
15947;DHT22;8072;52.554;7.966;2023-12-20T03:04:33;5.70;99.90
15947;DHT22;8072;52.554;7.966;2023-12-20T03:06:59;5.70;99.90
15947;DHT22;8072;52.554;7.966;2023-12-20T03:09:26;5.70;99.90
15947;DHT22;8072;52.554;7.966;2023-12-20T03:11:52;5.70;99.90
15947;DHT22;8072;52.554;7.966;2023-12-20T03:14:18;5.60;99.90
15947;DHT22;8072;52.554;7.966;2023-12-20T03:16:49;5.60;99.90
15947;DHT22;8072;52.554;7.966;2023-12-20T03:19:17;5.60;99.90
15947;DHT22;8072;52.554;7.966;2023-12-20T03:21:44;5.70;99.90
15947;DHT22;8072;52.554;7.966;2023-12-20T03:24:09;5.70;99.90
15947;DHT22;8072;52.554;7.966;2023-12-20T03:26:35;5.70;99.90
15947;DHT22;8072;52.554;7.966;2023-12-20T03:29:02;5.70;99.90
15947;DHT22;8072;52.554;7.966;2023-12-20T03:31:28;5.80;99.90
15947;DHT22;8072;52.554;7.966;2023-12-20T03:33:54;5.80;99.90
15947;DHT22;8072;52.554;7.966;2023-12-20T03:36:20;5.80;99.90
15947;DHT22;8072;52.554;7.966;2023-12-20T03:38:46;5.80;99.90
15947;DHT22;8072;52.554;7.966;2023-12-20T03:41:12;5.80;99.90
15947;DHT22;8072;52.554;7.966;2023-12-20T03:43:37;5.80;99.90
15947;DHT22;8072;52.554;7.966;2023-12-20T03:46:03;5.80;99.90
15947;DHT22;8072;52.554;7.966;2023-12-20T03:48:32;5.80;99.90
15947;DHT22;8072;52.554;7.966;2023-12-20T03:50:58;5.80;99.90
15947;DHT22;8072;52.554;7.966;2023-12-20T03:53:25;5.80;99.90
15947;DHT22;8072;52.554;7.966;2023-12-20T03:55:50;5.80;99.90
15947;DHT22;8072;52.554;7.966;2023-12-20T03:58:16;5.90;99.90
15947;DHT22;8072;52.554;7.966;2023-12-20T04:00:42;5.80;99.90
15947;DHT22;8072;52.554;7.966;2023-12-20T04:03:08;5.90;99.90
15947;DHT22;8072;52.554;7.966;2023-12-20T04:05:34;5.90;99.90
15947;DHT22;8072;52.554;7.966;2023-12-20T04:08:01;5.90;99.90
15947;DHT22;8072;52.554;7.966;2023-12-20T04:10:28;5.90;99.90
15947;DHT22;8072;52.554;7.966;2023-12-20T04:12:54;5.90;99.90
15947;DHT22;8072;52.554;7.966;2023-12-20T04:15:20;5.90;99.90
15947;DHT22;8072;52.554;7.966;2023-12-20T04:17:46;5.90;99.90
15947;DHT22;8072;52.554;7.966;2023-12-20T04:20:12;5.90;99.90
15947;DHT22;8072;52.554;7.966;2023-12-20T04:22:37;5.90;99.90
15947;DHT22;8072;52.554;7.966;2023-12-20T04:25:03;5.90;99.90
15947;DHT22;8072;52.554;7.966;2023-12-20T04:27:30;5.90;99.90
15947;DHT22;8072;52.554;7.966;2023-12-20T04:29:56;5.90;99.90
15947;DHT22;8072;52.554;7.966;2023-12-20T04:32:22;5.80;99.90
15947;DHT22;8072;52.554;7.966;2023-12-20T04:34:48;5.80;99.90
15947;DHT22;8072;52.554;7.966;2023-12-20T04:37:15;5.80;99.90
15947;DHT22;8072;52.554;7.966;2023-12-20T04:39:41;5.90;99.90
15947;DHT22;8072;52.554;7.966;2023-12-20T04:42:08;5.90;99.90
15947;DHT22;8072;52.554;7.966;2023-12-20T04:44:34;5.90;99.90
15947;DHT22;8072;52.554;7.966;2023-12-20T04:46:59;5.90;99.90
15947;DHT22;8072;52.554;7.966;2023-12-20T04:49:26;6.00;99.90
15947;DHT22;8072;52.554;7.966;2023-12-20T04:51:51;6.00;99.90
15947;DHT22;8072;52.554;7.966;2023-12-20T04:54:17;6.00;99.90
15947;DHT22;8072;52.554;7.966;2023-12-20T04:56:45;5.90;99.90
15947;DHT22;8072;52.554;7.966;2023-12-20T04:59:11;5.90;99.90
15947;DHT22;8072;52.554;7.966;2023-12-20T05:01:37;5.90;99.90
15947;DHT22;8072;52.554;7.966;2023-12-20T05:04:03;5.90;99.90
15947;DHT22;8072;52.554;7.966;2023-12-20T05:06:29;5.90;99.90
15947;DHT22;8072;52.554;7.966;2023-12-20T05:08:56;6.00;99.90
15947;DHT22;8072;52.554;7.966;2023-12-20T05:11:22;6.00;99.90
15947;DHT22;8072;52.554;7.966;2023-12-20T05:13:48;6.00;99.90
15947;DHT22;8072;52.554;7.966;2023-12-20T05:16:13;6.00;99.90
15947;DHT22;8072;52.554;7.966;2023-12-20T05:18:44;6.10;99.90
15947;DHT22;8072;52.554;7.966;2023-12-20T05:21:11;6.10;99.90
15947;DHT22;8072;52.554;7.966;2023-12-20T05:23:37;6.10;99.90
15947;DHT22;8072;52.554;7.966;2023-12-20T05:26:03;6.10;99.90
15947;DHT22;8072;52.554;7.966;2023-12-20T05:28:28;6.10;99.90
15947;DHT22;8072;52.554;7.966;2023-12-20T05:30:54;6.10;99.90
15947;DHT22;8072;52.554;7.966;2023-12-20T05:33:20;6.10;99.90
15947;DHT22;8072;52.554;7.966;2023-12-20T05:35:46;6.20;99.90
15947;DHT22;8072;52.554;7.966;2023-12-20T05:38:12;6.20;99.90
15947;DHT22;8072;52.554;7.966;2023-12-20T05:40:38;6.10;99.90
15947;DHT22;8072;52.554;7.966;2023-12-20T05:43:04;6.20;99.90
15947;DHT22;8072;52.554;7.966;2023-12-20T05:45:29;6.20;99.90
15947;DHT22;8072;52.554;7.966;2023-12-20T05:48:04;6.20;99.90
15947;DHT22;8072;52.554;7.966;2023-12-20T05:50:31;6.20;99.90
15947;DHT22;8072;52.554;7.966;2023-12-20T05:52:58;6.20;99.90
15947;DHT22;8072;52.554;7.966;2023-12-20T05:55:24;6.20;99.90
15947;DHT22;8072;52.554;7.966;2023-12-20T05:57:50;6.20;99.90
15947;DHT22;8072;52.554;7.966;2023-12-20T06:00:17;6.20;99.90
15947;DHT22;8072;52.554;7.966;2023-12-20T06:02:43;6.20;99.90
15947;DHT22;8072;52.554;7.966;2023-12-20T06:05:09;6.20;99.90
15947;DHT22;8072;52.554;7.966;2023-12-20T06:07:35;6.30;99.90
15947;DHT22;8072;52.554;7.966;2023-12-20T06:10:01;6.30;99.90
15947;DHT22;8072;52.554;7.966;2023-12-20T06:12:27;6.30;99.90
15947;DHT22;8072;52.554;7.966;2023-12-20T06:14:54;6.30;99.90
15947;DHT22;8072;52.554;7.966;2023-12-20T06:17:20;6.30;99.90
15947;DHT22;8072;52.554;7.966;2023-12-20T06:19:45;6.40;99.90
15947;DHT22;8072;52.554;7.966;2023-12-20T06:22:14;6.30;99.90
15947;DHT22;8072;52.554;7.966;2023-12-20T06:24:40;6.30;99.90
15947;DHT22;8072;52.554;7.966;2023-12-20T06:27:06;6.30;99.90
15947;DHT22;8072;52.554;7.966;2023-12-20T06:29:32;6.30;99.90
15947;DHT22;8072;52.554;7.966;2023-12-20T06:31:57;6.30;99.90
15947;DHT22;8072;52.554;7.966;2023-12-20T06:34:23;6.30;99.90
15947;DHT22;8072;52.554;7.966;2023-12-20T06:36:49;6.40;99.90
15947;DHT22;8072;52.554;7.966;2023-12-20T06:39:15;6.40;99.90
15947;DHT22;8072;52.554;7.966;2023-12-20T06:41:40;6.40;99.90
15947;DHT22;8072;52.554;7.966;2023-12-20T06:44:06;6.40;99.90
15947;DHT22;8072;52.554;7.966;2023-12-20T06:46:32;6.40;99.90
15947;DHT22;8072;52.554;7.966;2023-12-20T06:48:57;6.40;99.90
15947;DHT22;8072;52.554;7.966;2023-12-20T06:51:23;6.50;99.90
15947;DHT22;8072;52.554;7.966;2023-12-20T06:53:51;6.50;99.90
15947;DHT22;8072;52.554;7.966;2023-12-20T06:56:17;6.50;99.90
15947;DHT22;8072;52.554;7.966;2023-12-20T06:58:44;6.50;99.90
15947;DHT22;8072;52.554;7.966;2023-12-20T07:01:14;6.60;99.90
15947;DHT22;8072;52.554;7.966;2023-12-20T07:03:40;6.60;99.90
15947;DHT22;8072;52.554;7.966;2023-12-20T07:06:06;6.60;99.90
15947;DHT22;8072;52.554;7.966;2023-12-20T07:08:32;6.60;99.90
15947;DHT22;8072;52.554;7.966;2023-12-20T07:10:58;6.60;99.90
15947;DHT22;8072;52.554;7.966;2023-12-20T07:13:23;6.60;99.90
15947;DHT22;8072;52.554;7.966;2023-12-20T07:15:50;6.60;99.90
15947;DHT22;8072;52.554;7.966;2023-12-20T07:18:16;6.70;99.90
15947;DHT22;8072;52.554;7.966;2023-12-20T07:20:42;6.60;99.90
15947;DHT22;8072;52.554;7.966;2023-12-20T07:23:08;6.60;99.90
15947;DHT22;8072;52.554;7.966;2023-12-20T07:25:34;6.60;99.90
15947;DHT22;8072;52.554;7.966;2023-12-20T07:28:00;6.60;99.90
15947;DHT22;8072;52.554;7.966;2023-12-20T07:30:26;6.60;99.90
15947;DHT22;8072;52.554;7.966;2023-12-20T07:32:53;6.60;99.90
15947;DHT22;8072;52.554;7.966;2023-12-20T07:35:18;6.70;99.90
15947;DHT22;8072;52.554;7.966;2023-12-20T07:37:44;6.60;99.90
15947;DHT22;8072;52.554;7.966;2023-12-20T07:40:11;6.70;99.90
15947;DHT22;8072;52.554;7.966;2023-12-20T07:42:36;6.70;99.90
15947;DHT22;8072;52.554;7.966;2023-12-20T07:45:03;6.70;99.90
15947;DHT22;8072;52.554;7.966;2023-12-20T07:47:29;6.70;99.90
15947;DHT22;8072;52.554;7.966;2023-12-20T07:49:54;6.60;99.90
15947;DHT22;8072;52.554;7.966;2023-12-20T07:52:20;6.60;99.90
15947;DHT22;8072;52.554;7.966;2023-12-20T07:54:48;6.60;99.90
15947;DHT22;8072;52.554;7.966;2023-12-20T07:57:14;6.60;99.90
15947;DHT22;8072;52.554;7.966;2023-12-20T07:59:39;6.70;99.90
15947;DHT22;8072;52.554;7.966;2023-12-20T08:02:05;6.60;99.90
15947;DHT22;8072;52.554;7.966;2023-12-20T08:04:32;6.70;99.90
15947;DHT22;8072;52.554;7.966;2023-12-20T08:06:58;6.70;99.90
15947;DHT22;8072;52.554;7.966;2023-12-20T08:09:23;6.70;99.90
15947;DHT22;8072;52.554;7.966;2023-12-20T08:11:49;6.70;99.90
15947;DHT22;8072;52.554;7.966;2023-12-20T08:14:15;6.70;99.90
15947;DHT22;8072;52.554;7.966;2023-12-20T08:16:41;6.70;99.90
15947;DHT22;8072;52.554;7.966;2023-12-20T08:19:07;6.70;99.90
15947;DHT22;8072;52.554;7.966;2023-12-20T08:21:33;6.70;99.90
15947;DHT22;8072;52.554;7.966;2023-12-20T08:23:59;6.70;99.90
15947;DHT22;8072;52.554;7.966;2023-12-20T08:26:26;6.70;99.90
15947;DHT22;8072;52.554;7.966;2023-12-20T08:28:52;6.70;99.90
15947;DHT22;8072;52.554;7.966;2023-12-20T08:31:19;6.60;99.90
15947;DHT22;8072;52.554;7.966;2023-12-20T08:33:47;6.60;99.90
15947;DHT22;8072;52.554;7.966;2023-12-20T08:36:13;6.60;99.90
15947;DHT22;8072;52.554;7.966;2023-12-20T08:38:39;6.60;99.90
15947;DHT22;8072;52.554;7.966;2023-12-20T08:41:06;6.60;99.90
15947;DHT22;8072;52.554;7.966;2023-12-20T08:43:33;6.60;99.90
15947;DHT22;8072;52.554;7.966;2023-12-20T08:45:59;6.60;99.90
15947;DHT22;8072;52.554;7.966;2023-12-20T08:48:25;6.70;99.90
15947;DHT22;8072;52.554;7.966;2023-12-20T08:50:51;6.70;99.90
15947;DHT22;8072;52.554;7.966;2023-12-20T08:53:18;6.70;99.90
15947;DHT22;8072;52.554;7.966;2023-12-20T08:55:46;6.70;99.90
15947;DHT22;8072;52.554;7.966;2023-12-20T08:58:12;6.70;99.90
15947;DHT22;8072;52.554;7.966;2023-12-20T09:00:38;6.70;99.90
15947;DHT22;8072;52.554;7.966;2023-12-20T09:03:04;6.70;99.90
15947;DHT22;8072;52.554;7.966;2023-12-20T09:05:30;6.70;99.90
15947;DHT22;8072;52.554;7.966;2023-12-20T09:07:56;6.80;99.90
15947;DHT22;8072;52.554;7.966;2023-12-20T09:10:22;6.80;99.90
15947;DHT22;8072;52.554;7.966;2023-12-20T09:12:51;6.80;99.90
15947;DHT22;8072;52.554;7.966;2023-12-20T09:15:24;6.80;99.90
15947;DHT22;8072;52.554;7.966;2023-12-20T09:17:51;6.70;99.90
15947;DHT22;8072;52.554;7.966;2023-12-20T09:20:17;6.80;99.90
15947;DHT22;8072;52.554;7.966;2023-12-20T09:22:43;6.80;99.90
15947;DHT22;8072;52.554;7.966;2023-12-20T09:25:10;6.80;99.90
15947;DHT22;8072;52.554;7.966;2023-12-20T09:27:36;6.90;99.90
15947;DHT22;8072;52.554;7.966;2023-12-20T09:30:03;6.90;99.90
15947;DHT22;8072;52.554;7.966;2023-12-20T09:32:32;6.90;99.90
15947;DHT22;8072;52.554;7.966;2023-12-20T09:34:57;7.00;99.90
15947;DHT22;8072;52.554;7.966;2023-12-20T09:37:26;7.00;99.90
15947;DHT22;8072;52.554;7.966;2023-12-20T09:39:52;7.00;99.90
15947;DHT22;8072;52.554;7.966;2023-12-20T09:42:24;7.00;99.90
15947;DHT22;8072;52.554;7.966;2023-12-20T09:44:51;7.00;99.90
15947;DHT22;8072;52.554;7.966;2023-12-20T09:47:20;7.00;99.90
15947;DHT22;8072;52.554;7.966;2023-12-20T09:49:55;7.00;99.90
15947;DHT22;8072;52.554;7.966;2023-12-20T09:52:22;7.00;99.90
15947;DHT22;8072;52.554;7.966;2023-12-20T09:54:50;7.00;99.90
15947;DHT22;8072;52.554;7.966;2023-12-20T09:57:18;7.00;99.90
15947;DHT22;8072;52.554;7.966;2023-12-20T09:59:43;7.10;99.90
15947;DHT22;8072;52.554;7.966;2023-12-20T10:02:13;7.10;99.90
15947;DHT22;8072;52.554;7.966;2023-12-20T10:04:46;7.10;99.90
15947;DHT22;8072;52.554;7.966;2023-12-20T10:07:12;7.10;99.90
15947;DHT22;8072;52.554;7.966;2023-12-20T10:09:39;7.10;99.90
15947;DHT22;8072;52.554;7.966;2023-12-20T10:12:07;7.10;99.90
15947;DHT22;8072;52.554;7.966;2023-12-20T10:14:39;7.10;99.90
15947;DHT22;8072;52.554;7.966;2023-12-20T10:17:06;7.20;99.90
15947;DHT22;8072;52.554;7.966;2023-12-20T10:19:34;7.20;99.90
15947;DHT22;8072;52.554;7.966;2023-12-20T10:22:00;7.20;99.90
15947;DHT22;8072;52.554;7.966;2023-12-20T10:24:30;7.30;99.90
15947;DHT22;8072;52.554;7.966;2023-12-20T10:29:36;7.30;99.90
15947;DHT22;8072;52.554;7.966;2023-12-20T10:32:23;7.30;99.90
15947;DHT22;8072;52.554;7.966;2023-12-20T10:34:51;7.40;99.90
15947;DHT22;8072;52.554;7.966;2023-12-20T10:37:17;7.40;99.90
15947;DHT22;8072;52.554;7.966;2023-12-20T10:39:43;7.40;99.90
15947;DHT22;8072;52.554;7.966;2023-12-20T10:42:11;7.50;99.90
15947;DHT22;8072;52.554;7.966;2023-12-20T10:44:37;7.50;99.90
15947;DHT22;8072;52.554;7.966;2023-12-20T10:47:06;7.50;99.90
15947;DHT22;8072;52.554;7.966;2023-12-20T10:49:34;7.60;99.90
15947;DHT22;8072;52.554;7.966;2023-12-20T10:52:03;7.60;99.90
15947;DHT22;8072;52.554;7.966;2023-12-20T10:54:29;7.60;99.90
15947;DHT22;8072;52.554;7.966;2023-12-20T10:56:57;7.60;99.90
15947;DHT22;8072;52.554;7.966;2023-12-20T10:59:24;7.50;99.90
15947;DHT22;8072;52.554;7.966;2023-12-20T11:01:50;6.90;99.90
15947;DHT22;8072;52.554;7.966;2023-12-20T11:04:25;6.00;99.90
15947;DHT22;8072;52.554;7.966;2023-12-20T11:07:32;5.60;99.90
15947;DHT22;8072;52.554;7.966;2023-12-20T11:13:36;5.30;99.90
15947;DHT22;8072;52.554;7.966;2023-12-20T11:16:03;5.20;99.90
15947;DHT22;8072;52.554;7.966;2023-12-20T11:18:32;5.30;99.90
15947;DHT22;8072;52.554;7.966;2023-12-20T11:21:02;5.30;99.90
15947;DHT22;8072;52.554;7.966;2023-12-20T11:23:30;5.30;99.90
15947;DHT22;8072;52.554;7.966;2023-12-20T11:25:56;5.40;99.90
15947;DHT22;8072;52.554;7.966;2023-12-20T11:28:26;5.40;99.90
15947;DHT22;8072;52.554;7.966;2023-12-20T11:33:22;5.60;99.90
15947;DHT22;8072;52.554;7.966;2023-12-20T11:35:48;5.50;99.90
15947;DHT22;8072;52.554;7.966;2023-12-20T11:38:15;5.60;99.90
15947;DHT22;8072;52.554;7.966;2023-12-20T11:40:42;5.70;99.90
15947;DHT22;8072;52.554;7.966;2023-12-20T11:43:08;5.70;99.90
15947;DHT22;8072;52.554;7.966;2023-12-20T11:45:34;5.90;99.90
15947;DHT22;8072;52.554;7.966;2023-12-20T11:48:02;5.90;99.90
15947;DHT22;8072;52.554;7.966;2023-12-20T11:50:28;6.00;99.90
15947;DHT22;8072;52.554;7.966;2023-12-20T11:52:55;6.00;99.90
15947;DHT22;8072;52.554;7.966;2023-12-20T11:55:24;6.10;99.90
15947;DHT22;8072;52.554;7.966;2023-12-20T11:57:51;6.10;99.90
15947;DHT22;8072;52.554;7.966;2023-12-20T12:00:18;6.10;99.90
15947;DHT22;8072;52.554;7.966;2023-12-20T12:03:00;6.20;99.90
15947;DHT22;8072;52.554;7.966;2023-12-20T12:05:30;6.20;99.90
15947;DHT22;8072;52.554;7.966;2023-12-20T12:07:56;6.20;99.90
15947;DHT22;8072;52.554;7.966;2023-12-20T12:10:22;6.30;99.90
15947;DHT22;8072;52.554;7.966;2023-12-20T12:12:48;6.30;99.90
15947;DHT22;8072;52.554;7.966;2023-12-20T12:15:14;6.40;99.90
15947;DHT22;8072;52.554;7.966;2023-12-20T12:17:40;6.40;99.90
15947;DHT22;8072;52.554;7.966;2023-12-20T12:20:07;6.40;99.90
15947;DHT22;8072;52.554;7.966;2023-12-20T12:22:35;6.40;99.90
15947;DHT22;8072;52.554;7.966;2023-12-20T12:25:12;6.40;99.90
15947;DHT22;8072;52.554;7.966;2023-12-20T12:27:42;6.50;99.90
15947;DHT22;8072;52.554;7.966;2023-12-20T12:30:09;6.50;99.90
15947;DHT22;8072;52.554;7.966;2023-12-20T12:32:36;6.50;99.90
15947;DHT22;8072;52.554;7.966;2023-12-20T12:35:07;6.50;99.90
15947;DHT22;8072;52.554;7.966;2023-12-20T12:37:35;6.40;99.90
15947;DHT22;8072;52.554;7.966;2023-12-20T12:40:16;6.40;99.90
15947;DHT22;8072;52.554;7.966;2023-12-20T12:42:44;6.50;99.90
15947;DHT22;8072;52.554;7.966;2023-12-20T12:45:11;6.50;99.90
15947;DHT22;8072;52.554;7.966;2023-12-20T12:47:40;6.60;99.90
15947;DHT22;8072;52.554;7.966;2023-12-20T12:50:07;6.60;99.90
15947;DHT22;8072;52.554;7.966;2023-12-20T12:52:33;6.60;99.90
15947;DHT22;8072;52.554;7.966;2023-12-20T12:55:02;6.60;99.90
15947;DHT22;8072;52.554;7.966;2023-12-20T12:57:29;6.60;99.90
15947;DHT22;8072;52.554;7.966;2023-12-20T12:59:54;6.60;99.90
15947;DHT22;8072;52.554;7.966;2023-12-20T13:02:21;6.60;99.90
15947;DHT22;8072;52.554;7.966;2023-12-20T13:04:49;6.50;99.90
15947;DHT22;8072;52.554;7.966;2023-12-20T13:07:15;6.60;99.90
15947;DHT22;8072;52.554;7.966;2023-12-20T13:09:40;6.70;99.90
15947;DHT22;8072;52.554;7.966;2023-12-20T13:12:06;6.70;99.90
15947;DHT22;8072;52.554;7.966;2023-12-20T13:14:34;6.70;99.90
15947;DHT22;8072;52.554;7.966;2023-12-20T13:17:01;6.70;99.90
15947;DHT22;8072;52.554;7.966;2023-12-20T13:19:27;6.60;99.90
15947;DHT22;8072;52.554;7.966;2023-12-20T13:21:53;6.60;99.90
15947;DHT22;8072;52.554;7.966;2023-12-20T13:24:19;6.60;99.90
15947;DHT22;8072;52.554;7.966;2023-12-20T13:26:45;6.60;99.90
15947;DHT22;8072;52.554;7.966;2023-12-20T13:29:11;6.60;99.90
15947;DHT22;8072;52.554;7.966;2023-12-20T13:31:37;6.60;99.90
15947;DHT22;8072;52.554;7.966;2023-12-20T13:34:04;6.70;99.90
15947;DHT22;8072;52.554;7.966;2023-12-20T13:36:29;6.70;99.90
15947;DHT22;8072;52.554;7.966;2023-12-20T13:38:55;6.60;99.90
15947;DHT22;8072;52.554;7.966;2023-12-20T13:41:21;6.60;99.90
15947;DHT22;8072;52.554;7.966;2023-12-20T13:43:48;6.70;99.90
15947;DHT22;8072;52.554;7.966;2023-12-20T13:46:14;6.60;99.90
15947;DHT22;8072;52.554;7.966;2023-12-20T13:48:41;6.60;99.90
15947;DHT22;8072;52.554;7.966;2023-12-20T13:51:07;6.70;99.90
15947;DHT22;8072;52.554;7.966;2023-12-20T13:53:33;6.70;99.90
15947;DHT22;8072;52.554;7.966;2023-12-20T13:55:59;6.70;99.90
15947;DHT22;8072;52.554;7.966;2023-12-20T13:58:25;6.70;99.90
15947;DHT22;8072;52.554;7.966;2023-12-20T14:00:51;6.70;99.90
15947;DHT22;8072;52.554;7.966;2023-12-20T14:03:17;6.70;99.90
15947;DHT22;8072;52.554;7.966;2023-12-20T14:05:43;6.80;99.90
15947;DHT22;8072;52.554;7.966;2023-12-20T14:08:08;6.80;99.90
15947;DHT22;8072;52.554;7.966;2023-12-20T14:10:38;6.90;99.90
15947;DHT22;8072;52.554;7.966;2023-12-20T14:13:04;7.00;99.90
15947;DHT22;8072;52.554;7.966;2023-12-20T14:15:31;7.00;99.90
15947;DHT22;8072;52.554;7.966;2023-12-20T14:18:04;6.90;99.90
15947;DHT22;8072;52.554;7.966;2023-12-20T14:20:31;6.90;99.90
15947;DHT22;8072;52.554;7.966;2023-12-20T14:23:00;6.90;99.90
15947;DHT22;8072;52.554;7.966;2023-12-20T14:25:26;6.80;99.90
15947;DHT22;8072;52.554;7.966;2023-12-20T14:27:52;6.80;99.90
15947;DHT22;8072;52.554;7.966;2023-12-20T14:30:17;6.70;99.90
15947;DHT22;8072;52.554;7.966;2023-12-20T14:32:43;6.70;99.90
15947;DHT22;8072;52.554;7.966;2023-12-20T14:35:09;6.50;99.90
15947;DHT22;8072;52.554;7.966;2023-12-20T14:37:36;6.50;99.90
15947;DHT22;8072;52.554;7.966;2023-12-20T14:40:10;6.40;99.90
15947;DHT22;8072;52.554;7.966;2023-12-20T14:42:41;6.30;99.90
15947;DHT22;8072;52.554;7.966;2023-12-20T14:45:07;6.20;99.90
15947;DHT22;8072;52.554;7.966;2023-12-20T14:47:33;6.20;99.90
15947;DHT22;8072;52.554;7.966;2023-12-20T14:49:59;6.10;99.90
15947;DHT22;8072;52.554;7.966;2023-12-20T14:52:25;6.10;99.90
15947;DHT22;8072;52.554;7.966;2023-12-20T14:54:51;6.00;99.90
15947;DHT22;8072;52.554;7.966;2023-12-20T14:57:16;5.90;99.90
15947;DHT22;8072;52.554;7.966;2023-12-20T14:59:43;5.90;99.90
15947;DHT22;8072;52.554;7.966;2023-12-20T15:02:09;5.90;99.90
15947;DHT22;8072;52.554;7.966;2023-12-20T15:04:34;5.80;99.90
15947;DHT22;8072;52.554;7.966;2023-12-20T15:07:00;5.80;99.90
15947;DHT22;8072;52.554;7.966;2023-12-20T15:09:27;5.80;99.90
15947;DHT22;8072;52.554;7.966;2023-12-20T15:11:55;5.80;99.90
15947;DHT22;8072;52.554;7.966;2023-12-20T15:14:20;5.80;99.90
15947;DHT22;8072;52.554;7.966;2023-12-20T15:16:47;5.80;99.90
15947;DHT22;8072;52.554;7.966;2023-12-20T15:19:13;5.80;99.90
15947;DHT22;8072;52.554;7.966;2023-12-20T15:21:40;5.80;99.90
15947;DHT22;8072;52.554;7.966;2023-12-20T15:24:08;5.80;99.90
15947;DHT22;8072;52.554;7.966;2023-12-20T15:26:54;5.80;99.90
15947;DHT22;8072;52.554;7.966;2023-12-20T15:29:27;5.90;99.90
15947;DHT22;8072;52.554;7.966;2023-12-20T15:31:53;5.90;99.90
15947;DHT22;8072;52.554;7.966;2023-12-20T15:34:19;5.80;99.90
15947;DHT22;8072;52.554;7.966;2023-12-20T15:36:46;5.70;99.90
15947;DHT22;8072;52.554;7.966;2023-12-20T15:39:12;5.70;99.90
15947;DHT22;8072;52.554;7.966;2023-12-20T15:41:39;5.70;99.90
15947;DHT22;8072;52.554;7.966;2023-12-20T15:44:07;5.70;99.90
15947;DHT22;8072;52.554;7.966;2023-12-20T15:46:33;5.60;99.90
15947;DHT22;8072;52.554;7.966;2023-12-20T15:48:59;5.70;99.90
15947;DHT22;8072;52.554;7.966;2023-12-20T15:51:24;5.60;99.90
15947;DHT22;8072;52.554;7.966;2023-12-20T15:53:50;5.60;99.90
15947;DHT22;8072;52.554;7.966;2023-12-20T15:56:17;5.60;99.90
15947;DHT22;8072;52.554;7.966;2023-12-20T15:58:43;5.60;99.90
15947;DHT22;8072;52.554;7.966;2023-12-20T16:01:09;5.60;99.90
15947;DHT22;8072;52.554;7.966;2023-12-20T16:03:55;5.60;99.90
15947;DHT22;8072;52.554;7.966;2023-12-20T16:06:20;5.50;99.90
15947;DHT22;8072;52.554;7.966;2023-12-20T16:08:54;5.50;99.90